Time;durP1;ratioP1;P1;durP2;ratioP2;P2;SDS_P1;SDS_P2;PMS_P1;PMS_P2;Temp;Humidity;BMP_temperature;BMP_pressure;BME280_temperature;BME280_humidity;BME280_pressure;Samples;Min_cycle;Max_cycle;Signal;HPM_P1;HPM_P2
2022/09/03 00:01:58;;;;;;;;;;;;;;;24.82;30.86;100934.13;4991189;28;20000;-76
2022/09/03 00:04:35;;;;;;;;;;;;;;;24.80;30.75;100935.59;4973040;28;19914;-78
2022/09/03 00:07:02;;;;;;;;;;;;;;;24.76;30.75;100929.94;4974438;28;19920;-78
2022/09/03 00:09:38;;;;;;;;;;;;;;;24.75;30.96;100930.28;4973966;28;19920;-77
2022/09/03 00:12:13;;;;;;;;;;;;;;;24.72;30.90;100929.00;4975387;28;19914;-77
2022/09/03 00:15:00;;;;;;;;;;;;;;;24.70;31.15;100922.19;4975687;28;20002;-78
2022/09/03 00:17:37;;;;;;;;;;;;;;;24.67;30.89;100929.19;4975829;28;20012;-77
2022/09/03 00:20:09;;;;;;;;;;;;;;;24.64;30.82;100924.31;4974459;28;19914;-78
2022/09/03 00:22:38;;;;;;;;;;;;;;;24.61;30.93;100930.50;4975055;28;19914;-77
2022/09/03 00:25:06;;;;;;;;;;;;;;;24.58;30.92;100931.97;4975165;28;19918;-78
2022/09/03 00:27:36;;;;;;;;;;;;;;;24.58;31.23;100920.13;4974168;28;19961;-77
2022/09/03 00:30:03;;;;;;;;;;;;;;;24.54;31.22;100917.22;4975496;28;20306;-77
2022/09/03 00:32:36;;;;;;;;;;;;;;;24.52;31.34;100919.50;4975093;28;19924;-77
2022/09/03 00:35:03;;;;;;;;;;;;;;;24.49;30.92;100922.91;4975090;28;19920;-78
2022/09/03 00:37:28;;;;;;;;;;;;;;;24.47;30.97;100922.47;4975402;28;19914;-78
2022/09/03 00:39:55;;;;;;;;;;;;;;;24.46;30.92;100925.53;4974060;28;19918;-77
2022/09/03 00:42:38;;;;;;;;;;;;;;;24.43;31.02;100917.91;4990136;28;19937;-78
2022/09/03 00:45:27;;;;;;;;;;;;;;;24.40;31.02;100917.44;4975107;28;19921;-78
2022/09/03 00:48:06;;;;;;;;;;;;;;;24.37;31.33;100923.63;4970543;28;20378;-78
2022/09/03 00:50:38;;;;;;;;;;;;;;;24.36;30.97;100921.16;4975573;28;19913;-78
2022/09/03 00:53:03;;;;;;;;;;;;;;;24.33;31.03;100922.66;4989936;28;19914;-78
2022/09/03 00:55:47;;;;;;;;;;;;;;;24.30;31.09;100909.50;4990552;28;19914;-77
2022/09/03 00:58:31;;;;;;;;;;;;;;;24.29;31.04;100918.13;4975210;28;19965;-77
2022/09/03 01:00:58;;;;;;;;;;;;;;;24.25;30.96;100917.19;4974637;28;20000;-76
2022/09/03 01:03:32;;;;;;;;;;;;;;;24.24;31.07;100912.78;4974953;28;19913;-77
2022/09/03 01:06:20;;;;;;;;;;;;;;;24.21;31.49;100916.22;4974601;28;19914;-77
2022/09/03 01:09:15;;;;;;;;;;;;;;;24.17;31.02;100911.34;4971453;28;19918;-79
2022/09/03 01:11:58;;;;;;;;;;;;;;;24.16;31.05;100903.41;4971799;28;19917;-77
2022/09/03 01:14:29;;;;;;;;;;;;;;;24.13;31.15;100907.63;4978656;28;19914;-78
2022/09/03 01:17:02;;;;;;;;;;;;;;;24.11;31.27;100903.56;4978396;28;19920;-77
2022/09/03 01:19:53;;;;;;;;;;;;;;;24.08;31.10;100907.81;4978742;28;20338;-76
2022/09/03 01:22:43;;;;;;;;;;;;;;;24.05;31.20;100913.19;4978744;28;19921;-78
2022/09/03 01:25:12;;;;;;;;;;;;;;;24.03;31.06;100905.22;4977546;28;19914;-76
2022/09/03 01:27:45;;;;;;;;;;;;;;;24.00;31.16;100911.41;4994094;28;19921;-77
2022/09/03 01:30:17;;;;;;;;;;;;;;;23.98;31.53;100910.94;4978567;28;19918;-77
2022/09/03 01:33:17;;;;;;;;;;;;;;;23.96;31.37;100918.72;4978602;28;19914;-77
2022/09/03 01:35:47;;;;;;;;;;;;;;;23.93;31.56;100924.91;4956581;28;19919;-77
2022/09/03 01:38:31;;;;;;;;;;;;;;;23.92;31.50;100923.28;4985325;28;20052;-78
2022/09/03 01:42:12;;;;;;;;;;;;;;;23.88;31.26;100920.38;4992919;28;19921;-78
2022/09/03 01:44:05;;;;;;;;;;;;;;;23.86;31.63;100914.34;4977964;28;20351;-78
2022/09/03 01:46:35;;;;;;;;;;;;;;;23.84;31.25;100913.06;4977536;28;20358;-78
2022/09/03 01:49:00;;;;;;;;;;;;;;;23.81;31.44;100909.00;4976295;28;19918;-77
2022/09/03 01:51:29;;;;;;;;;;;;;;;23.78;31.28;100908.88;4977802;28;19921;-77
2022/09/03 01:54:02;;;;;;;;;;;;;;;23.77;31.58;100912.78;4978002;28;20282;-77
2022/09/03 01:56:46;;;;;;;;;;;;;;;23.74;31.31;100912.28;4977542;28;19914;-77
2022/09/03 01:59:22;;;;;;;;;;;;;;;23.71;31.21;100915.69;4977761;28;19918;-76
2022/09/03 02:01:55;;;;;;;;;;;;;;;23.69;31.54;100922.66;4977412;28;19918;-76
2022/09/03 02:04:22;;;;;;;;;;;;;;;23.66;31.35;100915.84;4976771;28;19925;-76
2022/09/03 02:06:49;;;;;;;;;;;;;;;23.66;31.41;100909.50;4978517;28;19921;-76
2022/09/03 02:09:15;;;;;;;;;;;;;;;23.63;31.78;100916.47;4977033;28;19914;-77
2022/09/03 02:11:41;;;;;;;;;;;;;;;23.61;31.37;100905.00;4976354;28;19956;-77
2022/09/03 02:14:06;;;;;;;;;;;;;;;23.58;31.35;100908.38;4992917;28;19918;-77
2022/09/03 02:16:33;;;;;;;;;;;;;;;23.57;31.53;100904.03;4976516;28;19925;-75
2022/09/03 02:19:04;;;;;;;;;;;;;;;23.54;31.56;100905.47;4977520;28;20389;-76
2022/09/03 02:21:34;;;;;;;;;;;;;;;23.52;31.69;100902.22;4976003;28;20359;-76
2022/09/03 02:24:00;;;;;;;;;;;;;;;23.50;31.49;100907.25;4977662;28;19918;-78
2022/09/03 02:26:25;;;;;;;;;;;;;;;23.48;31.82;100911.47;4984776;28;19922;-76
2022/09/03 02:28:52;;;;;;;;;;;;;;;23.46;31.71;100905.47;4993623;28;19914;-79
2022/09/03 02:31:17;;;;;;;;;;;;;;;23.44;31.85;100907.78;4984340;28;19969;-76
2022/09/03 02:33:44;;;;;;;;;;;;;;;23.42;31.50;100908.09;4976652;28;19921;-76
2022/09/03 02:36:11;;;;;;;;;;;;;;;23.40;31.68;100907.59;4977032;28;19914;-76
2022/09/03 02:38:36;;;;;;;;;;;;;;;23.37;31.54;100911.00;4976765;28;20402;-76
2022/09/03 02:41:02;;;;;;;;;;;;;;;23.36;31.52;100908.56;4976814;28;19941;-76
2022/09/03 02:43:46;;;;;;;;;;;;;;;23.35;31.79;100906.94;4975898;28;19968;-76
2022/09/03 02:46:16;;;;;;;;;;;;;;;23.32;31.88;100905.66;4976804;28;19961;-77
2022/09/03 02:48:41;;;;;;;;;;;;;;;23.27;31.62;100900.31;4975586;28;19957;-76
2022/09/03 02:51:06;;;;;;;;;;;;;;;23.26;31.89;100905.03;4975509;28;19961;-77
2022/09/03 02:53:31;;;;;;;;;;;;;;;23.23;31.73;100905.66;4992514;28;20346;-77
2022/09/03 02:55:58;;;;;;;;;;;;;;;23.21;31.68;100913.44;4959192;28;20009;-79
2022/09/03 02:58:24;;;;;;;;;;;;;;;23.19;31.65;100903.88;4975129;28;19917;-76
2022/09/03 03:00:49;;;;;;;;;;;;;;;23.17;31.96;100903.41;4976674;28;20298;-77
2022/09/03 03:03:15;;;;;;;;;;;;;;;23.15;31.99;100905.66;4976483;28;20370;-76
2022/09/03 03:05:43;;;;;;;;;;;;;;;23.13;31.66;100902.41;4976422;28;19956;-76
2022/09/03 03:08:08;;;;;;;;;;;;;;;23.10;31.99;100899.16;4991449;28;20350;-77
2022/09/03 03:10:34;;;;;;;;;;;;;;;23.08;31.90;100904.22;4959093;28;19925;-77
2022/09/03 03:12:59;;;;;;;;;;;;;;;23.06;32.01;100909.22;4975366;28;19921;-78
2022/09/03 03:15:25;;;;;;;;;;;;;;;23.04;31.99;100908.72;4975655;28;20013;-78
2022/09/03 03:17:50;;;;;;;;;;;;;;;23.03;31.98;100906.28;4975007;28;19921;-78
2022/09/03 03:20:15;;;;;;;;;;;;;;;23.00;31.78;100906.94;4974827;28;19914;-77
2022/09/03 03:22:41;;;;;;;;;;;;;;;22.99;32.07;100910.84;4991367;28;19918;-77
2022/09/03 03:25:06;;;;;;;;;;;;;;;22.97;31.67;100913.06;4974898;28;19990;-77
2022/09/03 03:27:31;;;;;;;;;;;;;;;22.95;31.69;100905.13;4976112;28;19918;-76
2022/09/03 03:29:56;;;;;;;;;;;;;;;22.94;32.03;100913.72;4975103;28;19965;-77
2022/09/03 03:32:22;;;;;;;;;;;;;;;22.90;31.78;100913.53;4990952;28;20025;-77
2022/09/03 03:34:47;;;;;;;;;;;;;;;22.88;31.67;100913.03;4974431;28;19957;-79
2022/09/03 03:37:12;;;;;;;;;;;;;;;22.86;32.14;100905.13;4974638;28;20353;-76
2022/09/03 03:39:38;;;;;;;;;;;;;;;22.84;31.76;100914.84;4975885;28;19914;-76
2022/09/03 03:42:03;;;;;;;;;;;;;;;22.82;32.10;100911.59;4990290;28;19944;-77
2022/09/03 03:44:29;;;;;;;;;;;;;;;;;;4958491;28;19977;-77
2022/09/03 03:46:54;;;;;;;;;;;;;;;22.78;31.91;100919.69;4975972;28;19913;-77
2022/09/03 03:49:19;;;;;;;;;;;;;;;22.76;32.08;100910.94;4990302;28;19922;-77
2022/09/03 03:51:44;;;;;;;;;;;;;;;22.74;32.15;100906.88;4975736;28;19930;-76
2022/09/03 03:54:10;;;;;;;;;;;;;;;22.72;31.78;100900.88;4958235;28;19969;-77
2022/09/03 03:56:35;;;;;;;;;;;;;;;22.69;31.81;100903.13;4974079;28;19940;-79
2022/09/03 03:59:01;;;;;;;;;;;;;;;22.68;31.84;100906.22;4974775;28;20373;-77
2022/09/03 04:01:27;;;;;;;;;;;;;;;22.67;31.74;100910.09;4975458;28;19914;-75
2022/09/03 04:03:56;;;;;;;;;;;;;;;22.64;32.28;100908.78;4975161;28;20370;-78
2022/09/03 04:06:21;;;;;;;;;;;;;;;22.62;31.92;100900.03;4975377;28;19929;-78
2022/09/03 04:08:47;;;;;;;;;;;;;;;22.61;31.99;100908.63;4990420;28;19918;-76
2022/09/03 04:11:15;;;;;;;;;;;;;;;22.59;32.03;100902.63;4975382;28;19914;-77
2022/09/03 04:13:41;;;;;;;;;;;;;;;22.56;32.29;100908.78;4975371;28;19918;-76
2022/09/03 04:16:17;;;;;;;;;;;;;;;22.54;32.01;100903.59;4975198;28;19914;-77
2022/09/03 04:18:42;;;;;;;;;;;;;;;22.53;31.86;100903.88;4974436;28;19914;-76
2022/09/03 04:21:09;;;;;;;;;;;;;;;22.51;32.17;100897.91;4991279;28;19914;-77
2022/09/03 04:23:39;;;;;;;;;;;;;;;22.49;31.97;100902.94;4973743;28;19918;-76
2022/09/03 04:26:05;;;;;;;;;;;;;;;22.46;32.29;100896.13;4974022;28;19992;-77
2022/09/03 04:28:31;;;;;;;;;;;;;;;22.43;32.40;100897.56;4975281;28;19980;-79
2022/09/03 04:31:00;;;;;;;;;;;;;;;22.41;32.31;100905.31;4975210;28;19914;-76
2022/09/03 04:33:26;;;;;;;;;;;;;;;22.41;32.40;100893.50;4975408;28;19913;-76
2022/09/03 04:35:51;;;;;;;;;;;;;;;22.39;32.31;100904.03;4974430;28;19925;-75
2022/09/03 04:38:16;;;;;;;;;;;;;;;22.36;32.37;100908.22;4974116;28;20339;-76
2022/09/03 04:40:42;;;;;;;;;;;;;;;22.34;32.36;100902.22;4990531;28;20020;-76
2022/09/03 04:43:08;;;;;;;;;;;;;;;22.34;32.31;100912.44;4975139;28;20369;-79
2022/09/03 04:45:33;;;;;;;;;;;;;;;22.32;32.13;100911.94;4978116;28;19925;-77
2022/09/03 04:48:02;;;;;;;;;;;;;;;22.30;32.47;100905.91;4961727;28;20350;-78
2022/09/03 04:50:28;;;;;;;;;;;;;;;22.26;32.49;100905.75;4978986;28;19953;-75
2022/09/03 04:52:55;;;;;;;;;;;;;;;22.25;32.17;100910.47;4978667;28;20421;-77
2022/09/03 04:55:21;;;;;;;;;;;;;;;22.23;32.24;100907.22;4977644;28;19929;-76
2022/09/03 04:57:47;;;;;;;;;;;;;;;22.21;32.46;100914.16;4979332;28;20032;-76
2022/09/03 05:00:12;;;;;;;;;;;;;;;22.19;32.14;100906.19;4979038;28;20417;-77
2022/09/03 05:02:37;;;;;;;;;;;;;;;22.18;32.55;100910.06;4993745;28;19925;-76
2022/09/03 05:05:03;;;;;;;;;;;;;;;22.16;32.14;100911.50;4978747;28;20251;-75
2022/09/03 05:07:37;;;;;;;;;;;;;;;22.14;32.13;100905.50;4978650;28;20258;-75
2022/09/03 05:10:03;;;;;;;;;;;;;;;22.11;32.26;100906.94;4977716;28;20250;-75
2022/09/03 05:12:30;;;;;;;;;;;;;;;22.10;32.35;100904.50;4978507;28;20377;-77
2022/09/03 05:14:55;;;;;;;;;;;;;;;22.08;32.68;100910.34;4976924;28;19918;-75
2022/09/03 05:17:20;;;;;;;;;;;;;;;22.06;32.51;100909.03;4979000;28;19924;-76
2022/09/03 05:19:46;;;;;;;;;;;;;;;22.04;32.45;100898.34;4978287;28;20001;-75
2022/09/03 05:22:11;;;;;;;;;;;;;;;22.02;32.38;100900.59;4977197;28;19945;-87
2022/09/03 05:24:36;;;;;;;;;;;;;;;21.99;32.41;100906.72;4978151;28;20278;-77
2022/09/03 05:27:02;;;;;;;;;;;;;;;21.97;32.41;100900.72;4978353;28;19918;-77
2022/09/03 05:29:27;;;;;;;;;;;;;;;21.96;32.44;100905.41;4977775;28;19925;-77
2022/09/03 05:31:52;;;;;;;;;;;;;;;21.94;32.68;100904.91;4978793;28;19969;-78
2022/09/03 05:34:18;;;;;;;;;;;;;;;21.93;32.67;100908.00;4977053;28;19921;-75
2022/09/03 05:36:45;;;;;;;;;;;;;;;21.90;32.42;100898.44;4977053;28;19920;-76
2022/09/03 05:39:10;;;;;;;;;;;;;;;21.89;32.63;100912.50;4978647;28;19973;-76
2022/09/03 05:41:35;;;;;;;;;;;;;;;21.88;32.41;100911.69;4977073;28;20323;-76
2022/09/03 05:44:01;;;;;;;;;;;;;;;21.85;32.52;100906.81;4977794;28;20009;-77
2022/09/03 05:46:31;;;;;;;;;;;;;;;21.85;32.52;100911.50;4978015;28;19914;-76
2022/09/03 05:49:03;;;;;;;;;;;;;;;21.81;32.76;100903.06;4978051;28;19985;-76
2022/09/03 05:51:28;;;;;;;;;;;;;;;21.80;32.86;100901.47;4977880;28;19949;-75
2022/09/03 05:53:54;;;;;;;;;;;;;;;21.79;32.58;100899.81;4977829;28;19969;-80
2022/09/03 05:56:20;;;;;;;;;;;;;;;21.77;32.58;100907.56;4977087;28;19921;-79
2022/09/03 05:58:47;;;;;;;;;;;;;;;21.75;32.75;100905.16;4977296;28;19918;-74
2022/09/03 06:01:14;;;;;;;;;;;;;;;21.73;32.56;100906.59;4977742;28;19954;-75
2022/09/03 06:03:40;;;;;;;;;;;;;;;21.70;32.70;100910.78;4982146;28;19914;-76
2022/09/03 06:06:06;;;;;;;;;;;;;;;21.69;32.67;100906.38;4983912;28;19914;-76
2022/09/03 06:08:31;;;;;;;;;;;;;;;21.68;33.01;100910.28;4979593;28;20004;-76
2022/09/03 06:10:58;;;;;;;;;;;;;;;21.67;32.62;100911.41;4993081;28;19968;-76
2022/09/03 06:13:23;;;;;;;;;;;;;;;21.66;33.01;100915.28;4977569;28;19914;-75
2022/09/03 06:15:48;;;;;;;;;;;;;;;21.65;32.78;100913.66;4992607;28;19918;-75
2022/09/03 06:18:13;;;;;;;;;;;;;;;21.63;33.14;100918.66;4977452;28;19918;-75
2022/09/03 06:20:39;;;;;;;;;;;;;;;21.63;32.78;100917.84;4977821;28;19968;-76
2022/09/03 06:23:04;;;;;;;;;;;;;;;21.60;32.71;100914.59;4977326;28;19953;-75
2022/09/03 06:25:30;;;;;;;;;;;;;;;21.60;32.82;100916.53;4992075;28;19927;-74
2022/09/03 06:27:55;;;;;;;;;;;;;;;21.58;33.17;100916.03;4976160;28;19918;-75
2022/09/03 06:30:22;;;;;;;;;;;;;;;21.57;33.17;100912.47;4976455;28;19921;-76
2022/09/03 06:32:51;;;;;;;;;;;;;;;21.54;32.87;100913.06;4977203;28;19925;-77
2022/09/03 06:35:17;;;;;;;;;;;;;;;21.54;32.90;100913.06;4977060;28;19960;-75
2022/09/03 06:37:42;;;;;;;;;;;;;;;21.53;32.83;100919.72;4992241;28;19950;-76
2022/09/03 06:40:11;;;;;;;;;;;;;;;21.51;32.92;100913.72;4991918;28;19925;-76
2022/09/03 06:42:36;;;;;;;;;;;;;;;21.51;32.95;100919.19;4977333;28;19924;-76
2022/09/03 06:45:01;;;;;;;;;;;;;;;21.49;32.97;100921.44;4976896;28;20013;-76
2022/09/03 06:47:27;;;;;;;;;;;;;;;21.48;32.96;100921.78;4975541;28;19973;-77
2022/09/03 06:49:52;;;;;;;;;;;;;;;21.47;32.99;100920.13;4976864;28;19914;-76
2022/09/03 06:52:17;;;;;;;;;;;;;;;21.46;33.11;100924.81;4977267;28;19972;-76
2022/09/03 06:54:43;;;;;;;;;;;;;;;21.46;33.17;100926.75;4959398;28;19965;-77
2022/09/03 06:57:08;;;;;;;;;;;;;;;21.45;33.15;100922.41;4991146;28;20016;-76
2022/09/03 06:59:33;;;;;;;;;;;;;;;21.44;33.04;100927.06;4976544;28;19949;-77
2022/09/03 07:01:59;;;;;;;;;;;;;;;21.44;33.23;100926.25;4976285;28;20373;-77
2022/09/03 07:04:26;;;;;;;;;;;;;;;21.42;33.12;100928.50;4975301;28;20290;-77
2022/09/03 07:06:51;;;;;;;;;;;;;;;21.42;33.07;100931.25;4976338;28;20004;-77
2022/09/03 07:09:17;;;;;;;;;;;;;;;21.41;33.14;100932.38;4974353;28;20331;-78
2022/09/03 07:11:46;;;;;;;;;;;;;;;21.40;33.07;100934.31;4959477;28;19918;-77
2022/09/03 07:14:11;;;;;;;;;;;;;;;21.39;33.30;100924.44;4975239;28;19925;-76
2022/09/03 07:16:37;;;;;;;;;;;;;;;21.39;33.66;100933.53;4975215;28;19914;-76
2022/09/03 07:19:03;;;;;;;;;;;;;;;21.39;33.18;100922.53;4975489;28;20017;-76
2022/09/03 07:21:29;;;;;;;;;;;;;;;21.40;33.57;100926.09;4974836;28;19993;-76
2022/09/03 07:23:55;;;;;;;;;;;;;;;21.41;33.39;100929.63;4991470;28;19972;-76
2022/09/03 07:26:22;;;;;;;;;;;;;;;21.41;33.47;100924.94;4975158;28;19918;-77
2022/09/03 07:28:47;;;;;;;;;;;;;;;21.42;33.51;100923.00;4975997;28;19920;-78
2022/09/03 07:31:24;;;;;;;;;;;;;;;21.42;33.61;100925.75;4975581;28;19918;-77
2022/09/03 07:34:10;;;;;;;;;;;;;;;21.42;33.96;100926.59;4974694;28;19914;-78
2022/09/03 07:36:44;;;;;;;;;;;;;;;21.43;33.73;100928.19;4975658;28;19984;-79
2022/09/03 07:39:10;;;;;;;;;;;;;;;21.44;34.09;100920.75;4974667;28;19953;-77
2022/09/03 07:41:36;;;;;;;;;;;;;;;21.44;33.98;100924.31;4974205;28;19921;-76
2022/09/03 07:44:04;;;;;;;;;;;;;;;21.46;33.99;100929.50;4974564;28;19918;-77
2022/09/03 07:46:31;;;;;;;;;;;;;;;21.47;33.85;100934.72;4974359;28;19913;-75
2022/09/03 07:48:57;;;;;;;;;;;;;;;21.50;34.29;100931.34;4976288;28;19914;-79
2022/09/03 07:51:26;;;;;;;;;;;;;;;21.53;34.01;100938.13;4975609;28;19914;-77
2022/09/03 07:53:56;;;;;;;;;;;;;;;21.55;34.32;100924.91;4990688;28;20004;-76
2022/09/03 07:56:22;;;;;;;;;;;;;;;21.59;33.87;100934.13;4975495;28;19964;-77
2022/09/03 07:58:47;;;;;;;;;;;;;;;21.61;34.04;100935.44;4957601;28;19969;-76
2022/09/03 08:01:15;;;;;;;;;;;;;;;21.64;34.68;100936.75;4990688;28;19921;-77
2022/09/03 08:03:44;;;;;;;;;;;;;;;21.68;34.14;100931.47;4975362;28;19914;-76
2022/09/03 08:06:10;;;;;;;;;;;;;;;21.72;34.53;100936.03;4990331;28;20286;-70
2022/09/03 08:08:36;;;;;;;;;;;;;;;21.78;34.55;100939.44;4975381;28;20381;-71
2022/09/03 08:11:09;;;;;;;;;;;;;;;21.84;34.80;100940.94;4975316;28;19918;-75
2022/09/03 08:13:39;;;;;;;;;;;;;;;21.91;34.71;100938.56;4975358;28;19936;-76
2022/09/03 08:16:05;;;;;;;;;;;;;;;21.96;34.56;100943.94;4975184;28;19960;-73
2022/09/03 08:18:36;;;;;;;;;;;;;;;22.02;34.90;100945.44;4975985;28;19914;-73
2022/09/03 08:21:02;;;;;;;;;;;;;;;22.08;34.89;100935.09;4974332;28;19921;-75
2022/09/03 08:23:27;;;;;;;;;;;;;;;22.14;35.16;100947.59;4975233;28;20025;-71
2022/09/03 08:26:00;;;;;;;;;;;;;;;22.21;35.44;100947.16;4991074;28;20322;-72
2022/09/03 08:28:25;;;;;;;;;;;;;;;22.28;34.92;100941.22;4975106;28;19914;-72
2022/09/03 08:30:50;;;;;;;;;;;;;;;22.33;35.25;100947.41;4975036;28;19918;-71
2022/09/03 08:33:16;;;;;;;;;;;;;;;22.41;35.14;100945.81;4974125;28;19918;-73
2022/09/03 08:35:41;;;;;;;;;;;;;;;22.47;35.14;100952.78;4974725;28;20313;-72
2022/09/03 08:38:07;;;;;;;;;;;;;;;22.53;35.36;100950.69;4975835;28;19968;-72
2022/09/03 08:40:36;;;;;;;;;;;;;;;22.59;35.21;100953.00;4975054;28;19946;-71
2022/09/03 08:43:04;;;;;;;;;;;;;;;22.64;34.94;100958.34;4973518;28;19921;-72
2022/09/03 08:45:32;;;;;;;;;;;;;;;22.70;35.19;100956.25;4974938;28;19979;-72
2022/09/03 08:47:57;;;;;;;;;;;;;;;22.75;35.28;100955.31;4990019;28;19960;-79
2022/09/03 08:50:22;;;;;;;;;;;;;;;22.81;35.22;100954.84;4975313;28;19910;-73
2022/09/03 08:52:49;;;;;;;;;;;;;;;22.88;34.75;100965.38;4975157;28;20253;-76
2022/09/03 08:55:20;;;;;;;;;;;;;;;22.95;35.08;100960.22;4974856;28;19914;-73
2022/09/03 08:57:47;;;;;;;;;;;;;;;23.01;34.56;100960.94;4974442;28;19913;-74
2022/09/03 09:00:13;;;;;;;;;;;;;;;23.07;34.95;100967.88;4974735;28;20317;-71
2022/09/03 09:03:01;;;;;;;;;;;;;;;23.11;34.44;100961.41;4974588;28;19934;-72
2022/09/03 09:05:35;;;;;;;;;;;;;;;23.18;34.51;100962.88;4971775;28;20093;-73
2022/09/03 09:08:18;;;;;;;;;;;;;;;23.24;34.46;100967.09;4974684;28;19910;-73
2022/09/03 09:10:45;;;;;;;;;;;;;;;23.32;34.85;100971.81;4975239;28;19925;-74
2022/09/03 09:13:12;;;;;;;;;;;;;;;23.39;34.43;100972.16;4974356;28;19933;-74
2022/09/03 09:15:52;;;;;;;;;;;;;;;23.44;34.62;100973.94;4974559;28;20292;-77
2022/09/03 09:18:36;;;;;;;;;;;;;;;23.49;34.48;100969.06;4974910;28;19921;-72
2022/09/03 09:21:07;;;;;;;;;;;;;;;23.55;34.25;100973.25;4974453;28;19925;-72
2022/09/03 09:23:41;;;;;;;;;;;;;;;23.60;34.59;100969.53;4974486;28;19918;-75
2022/09/03 09:26:09;;;;;;;;;;;;;;;23.64;34.59;100959.50;4974597;28;19921;-74
2022/09/03 09:28:36;;;;;;;;;;;;;;;23.67;34.43;100958.84;4974423;28;20359;-72
2022/09/03 09:31:03;;;;;;;;;;;;;;;23.72;34.52;100955.09;4974691;28;19918;-72
2022/09/03 09:33:30;;;;;;;;;;;;;;;23.77;34.58;100948.63;4977602;28;19914;-74
2022/09/03 09:35:55;;;;;;;;;;;;;;;23.82;34.27;100954.78;4977687;28;19914;-72
2022/09/03 09:38:28;;;;;;;;;;;;;;;23.88;34.33;100949.91;4977667;28;19918;-74
2022/09/03 09:40:55;;;;;;;;;;;;;;;23.92;34.31;100954.44;4976397;28;19969;-75
2022/09/03 09:43:21;;;;;;;;;;;;;;;23.95;34.21;100944.69;4977823;28;19933;-71
2022/09/03 09:45:47;;;;;;;;;;;;;;;23.99;34.16;100951.19;4977636;28;20274;-74
2022/09/03 09:48:25;;;;;;;;;;;;;;;24.04;34.32;100945.50;4977593;28;19918;-74
2022/09/03 09:51:03;;;;;;;;;;;;;;;24.09;34.49;100950.84;4977591;28;19925;-77
2022/09/03 09:53:29;;;;;;;;;;;;;;;24.14;34.30;100956.19;4977752;28;19921;-78
2022/09/03 09:55:55;;;;;;;;;;;;;;;24.19;33.83;100960.69;4976345;28;19914;-78
2022/09/03 09:58:22;;;;;;;;;;;;;;;24.22;33.90;100951.78;4976181;28;19918;-74
2022/09/03 10:01:20;;;;;;;;;;;;;;;24.27;34.21;100953.53;4977181;28;20363;-75
2022/09/03 10:04:04;;;;;;;;;;;;;;;24.30;34.15;100956.44;4965396;28;19914;-75
2022/09/03 10:09:15;;;;;;;;;;;;;;;24.41;34.00;100948.59;4977906;28;19965;-75
2022/09/03 10:12:03;;;;;;;;;;;;;;;24.45;33.87;100946.00;4977339;28;19934;-76
2022/09/03 10:14:34;;;;;;;;;;;;;;;24.49;34.08;100953.28;4973887;28;19965;-73
2022/09/03 10:17:17;;;;;;;;;;;;;;;24.53;34.08;100945.16;4977158;28;19914;-70
2022/09/03 10:22:48;;;;;;;;;;;;;;;24.61;33.78;100941.56;4977018;28;19968;-75
2022/09/03 10:25:15;;;;;;;;;;;;;;;24.65;33.91;100936.19;4976769;28;19921;-81
2022/09/03 10:27:44;;;;;;;;;;;;;;;24.69;33.71;100931.59;4977087;28;19920;-77
2022/09/03 10:30:10;;;;;;;;;;;;;;;24.72;33.98;100931.75;4960687;28;19988;-79
2022/09/03 10:32:35;;;;;;;;;;;;;;;24.76;34.54;100937.41;4959589;28;20357;-79
2022/09/03 10:35:11;;;;;;;;;;;;;;;24.80;34.05;100935.59;4992380;28;19917;-76
2022/09/03 10:37:48;;;;;;;;;;;;;;;24.83;34.46;100930.22;4976556;28;19914;-79
2022/09/03 10:40:14;;;;;;;;;;;;;;;24.89;34.07;100930.81;4992381;28;19914;-78
2022/09/03 10:42:39;;;;;;;;;;;;;;;24.95;34.10;100931.47;4991563;28;19914;-77
2022/09/03 10:45:18;;;;;;;;;;;;;;;24.99;34.76;100930.41;4976685;28;19914;-77
2022/09/03 10:47:58;;;;;;;;;;;;;;;25.04;34.25;100927.47;4976750;28;19921;-76
2022/09/03 10:50:36;;;;;;;;;;;;;;;25.12;34.28;100925.78;4976816;28;19914;-81
2022/09/03 10:53:20;;;;;;;;;;;;;;;25.18;34.62;100941.06;4976350;28;19918;-79
2022/09/03 10:55:54;;;;;;;;;;;;;;;25.22;34.50;100933.72;4976575;28;19957;-78
2022/09/03 10:58:39;;;;;;;;;;;;;;;25.29;34.68;100937.88;4977560;28;20008;-79
2022/09/03 11:01:21;;;;;;;;;;;;;;;25.33;34.58;100934.13;4992000;28;19921;-78
2022/09/03 11:03:55;;;;;;;;;;;;;;;25.39;34.04;100932.75;4975451;28;19913;-77
2022/09/03 11:06:27;;;;;;;;;;;;;;;25.46;34.14;100934.97;4976842;28;19914;-76
2022/09/03 11:08:52;;;;;;;;;;;;;;;25.50;34.27;100935.09;4991789;28;19922;-75
2022/09/03 11:11:21;;;;;;;;;;;;;;;25.53;34.56;100937.19;4976476;28;19936;-76
2022/09/03 11:13:50;;;;;;;;;;;;;;;25.56;34.28;100931.00;4976324;28;19914;-83
2022/09/03 11:16:16;;;;;;;;;;;;;;;25.59;34.48;100927.53;4976030;28;19957;-76
2022/09/03 11:18:54;;;;;;;;;;;;;;;25.63;34.62;100925.72;4976769;28;19925;-77
2022/09/03 11:21:21;;;;;;;;;;;;;;;25.66;34.27;100936.09;4991514;28;19914;-75
2022/09/03 11:23:51;;;;;;;;;;;;;;;25.69;34.79;100933.44;4975771;28;19921;-75
2022/09/03 11:26:18;;;;;;;;;;;;;;;25.73;34.30;100925.28;4975002;28;19914;-75
2022/09/03 11:29:07;;;;;;;;;;;;;;;25.77;34.64;100930.94;4976050;28;19914;-76
2022/09/03 11:31:32;;;;;;;;;;;;;;;25.81;34.52;100927.16;4973228;28;19926;-76
2022/09/03 11:34:12;;;;;;;;;;;;;;;25.82;34.86;100928.75;4975701;28;19960;-76
2022/09/03 11:36:38;;;;;;;;;;;;;;;25.86;35.24;100926.97;4975801;28;19914;-77
2022/09/03 11:39:22;;;;;;;;;;;;;;;25.90;35.01;100932.63;4975853;28;20322;-77
2022/09/03 11:42:07;;;;;;;;;;;;;;;25.93;35.04;100920.88;4975645;28;19914;-76
2022/09/03 11:44:37;;;;;;;;;;;;;;;25.97;35.00;100923.75;4975461;28;20310;-75
2022/09/03 11:47:12;;;;;;;;;;;;;;;26.01;35.08;100930.25;4975837;28;19941;-76
2022/09/03 11:49:43;;;;;;;;;;;;;;;26.05;34.85;100920.06;4975663;28;19996;-76
2022/09/03 11:52:09;;;;;;;;;;;;;;;26.11;35.02;100927.03;4975346;28;19921;-76
2022/09/03 11:54:44;;;;;;;;;;;;;;;26.17;35.03;100916.53;4973760;28;19918;-76
2022/09/03 11:57:22;;;;;;;;;;;;;;;26.22;34.51;100919.06;4990000;28;20385;-77
2022/09/03 11:59:47;;;;;;;;;;;;;;;26.26;35.02;100920.81;4976259;28;19936;-77
2022/09/03 12:02:18;;;;;;;;;;;;;;;26.30;34.77;100929.22;4975452;28;20401;-77
2022/09/03 12:04:51;;;;;;;;;;;;;;;26.36;34.48;100929.81;4975650;28;19921;-78
2022/09/03 12:07:25;;;;;;;;;;;;;;;26.40;34.65;100925.19;4975845;28;19948;-75
2022/09/03 12:09:56;;;;;;;;;;;;;;;26.44;34.85;100926.13;4975293;28;19918;-85
2022/09/03 12:12:40;;;;;;;;;;;;;;;26.48;34.16;100925.06;4975307;28;19993;-76
2022/09/03 12:15:05;;;;;;;;;;;;;;;26.53;34.64;100919.34;4990100;28;19913;-76
2022/09/03 12:18:17;;;;;;;;;;;;;;;26.60;34.46;100929.03;4974887;28;20024;-77
2022/09/03 12:20:36;;;;;;;;;;;;;;;26.64;34.55;100928.00;4974718;28;19914;-78
2022/09/03 12:23:02;;;;;;;;;;;;;;;26.68;34.52;100934.44;4990780;28;19929;-78
2022/09/03 12:25:27;;;;;;;;;;;;;;;26.73;34.21;100914.81;4975645;28;19925;-76
2022/09/03 12:27:52;;;;;;;;;;;;;;;26.79;34.43;100920.13;4975650;28;19918;-79
2022/09/03 12:30:21;;;;;;;;;;;;;;;26.87;33.75;100920.00;4973827;28;19918;-73
2022/09/03 12:32:48;;;;;;;;;;;;;;;26.94;33.87;100917.44;4975106;28;19914;-77
2022/09/03 12:35:21;;;;;;;;;;;;;;;27.01;33.73;100922.38;4973487;28;19914;-74
2022/09/03 12:37:47;;;;;;;;;;;;;;;27.09;34.08;100907.59;4975112;28;19918;-74
2022/09/03 12:40:20;;;;;;;;;;;;;;;27.16;33.97;100912.53;4974901;28;19918;-78
2022/09/03 12:42:45;;;;;;;;;;;;;;;27.24;33.70;100908.84;4974772;28;19941;-76
2022/09/03 12:45:14;;;;;;;;;;;;;;;27.32;33.09;100915.41;4973292;28;20339;-76
2022/09/03 12:47:40;;;;;;;;;;;;;;;27.39;33.13;100910.03;4973759;28;19925;-77
2022/09/03 12:50:08;;;;;;;;;;;;;;;27.49;33.04;100917.06;4975010;28;19913;-75
2022/09/03 12:52:39;;;;;;;;;;;;;;;27.56;33.03;100911.72;4975141;28;20378;-75
2022/09/03 12:55:05;;;;;;;;;;;;;;;27.63;33.15;100904.41;4990143;28;20342;-74
2022/09/03 12:57:39;;;;;;;;;;;;;;;27.72;33.42;100908.97;4974887;28;19977;-77